createdAt,value
2022-08-27T00:01:13.923Z,15.15
2022-08-27T00:03:40.213Z,15.73
2022-08-27T00:06:06.533Z,15.15
2022-08-27T00:08:33.188Z,15.63
2022-08-27T00:10:59.706Z,16.35
2022-08-27T00:13:26.031Z,14.57
2022-08-27T00:15:52.389Z,15.57
2022-08-27T00:18:22.608Z,15.55
2022-08-27T00:20:49.436Z,14.88
2022-08-27T00:23:15.772Z,14.95
2022-08-27T00:25:42.325Z,18.30
2022-08-27T00:28:08.584Z,16.30
2022-08-27T00:30:34.987Z,17.42
2022-08-27T00:33:01.306Z,17.98
2022-08-27T00:35:27.819Z,15.68
2022-08-27T00:37:54.221Z,15.70
2022-08-27T00:40:20.693Z,19.02
2022-08-27T00:42:47.050Z,15.60
2022-08-27T00:45:13.591Z,16.75
2022-08-27T00:47:39.877Z,15.43
2022-08-27T00:50:06.210Z,17.30
2022-08-27T00:52:32.700Z,14.95
2022-08-27T00:54:59.116Z,16.58
2022-08-27T00:57:25.323Z,16.13
2022-08-27T00:59:51.558Z,15.25
2022-08-27T01:02:18.095Z,17.10
2022-08-27T01:04:44.596Z,17.80
2022-08-27T01:07:10.954Z,17.02
2022-08-27T01:09:37.456Z,16.23
2022-08-27T01:12:03.822Z,15.82
2022-08-27T01:14:30.150Z,15.30
2022-08-27T01:16:56.450Z,17.02
2022-08-27T01:19:22.932Z,16.65
2022-08-27T01:21:49.226Z,16.63
2022-08-27T01:24:15.575Z,15.23
2022-08-27T01:26:41.935Z,16.20
2022-08-27T01:29:08.277Z,17.58
2022-08-27T01:31:34.657Z,18.98
2022-08-27T01:34:01.150Z,17.83
2022-08-27T01:36:27.493Z,16.77
2022-08-27T01:38:53.796Z,16.83
2022-08-27T01:41:21.052Z,16.33
2022-08-27T01:43:47.968Z,15.70
2022-08-27T01:46:14.470Z,17.33
2022-08-27T01:48:41.864Z,18.17
2022-08-27T01:51:08.908Z,17.60
2022-08-27T01:53:35.179Z,18.05
2022-08-27T01:56:01.427Z,19.02
2022-08-27T01:58:27.745Z,21.85
2022-08-27T02:00:56.094Z,21.60
2022-08-27T02:03:23.064Z,23.03
2022-08-27T02:05:49.334Z,21.88
2022-08-27T02:08:15.656Z,25.08
2022-08-27T02:10:42.379Z,23.17
2022-08-27T02:13:08.708Z,23.60
2022-08-27T02:15:35.217Z,26.52
2022-08-27T02:18:01.496Z,24.90
2022-08-27T02:20:27.954Z,25.40
2022-08-27T02:22:56.001Z,24.73
2022-08-27T02:25:23.024Z,24.77
2022-08-27T02:27:49.386Z,25.80
2022-08-27T02:30:15.644Z,27.48
2022-08-27T02:32:42.015Z,27.67
2022-08-27T02:35:08.500Z,29.88
2022-08-27T02:37:34.953Z,28.60
2022-08-27T02:40:01.431Z,25.85
2022-08-27T02:42:27.802Z,27.90
2022-08-27T02:44:54.294Z,27.50
2022-08-27T02:47:20.563Z,29.45
2022-08-27T02:49:46.965Z,27.90
2022-08-27T02:52:13.323Z,24.10
2022-08-27T02:54:39.764Z,25.42
2022-08-27T02:57:06.103Z,26.27
2022-08-27T02:59:32.439Z,24.23
2022-08-27T03:01:58.815Z,25.58
2022-08-27T03:04:25.506Z,27.67
2022-08-27T03:06:51.856Z,27.80
2022-08-27T03:09:18.178Z,28.35
2022-08-27T03:11:44.406Z,26.48
2022-08-27T03:14:10.708Z,28.45
2022-08-27T03:16:36.977Z,25.70
2022-08-27T03:19:03.277Z,26.33
2022-08-27T03:21:29.577Z,24.45
2022-08-27T03:23:55.991Z,26.42
2022-08-27T03:26:22.452Z,31.67
2022-08-27T03:28:48.706Z,27.98
2022-08-27T03:31:15.112Z,28.10
2022-08-27T03:33:41.470Z,28.90
2022-08-27T03:36:07.847Z,30.65
2022-08-27T03:38:34.129Z,28.80
2022-08-27T03:41:00.463Z,31.33
2022-08-27T03:43:26.792Z,29.08
2022-08-27T03:46:01.430Z,30.27
2022-08-27T03:48:28.641Z,31.88
2022-08-27T03:50:55.091Z,30.70
2022-08-27T03:53:21.430Z,30.23
2022-08-27T03:55:47.729Z,30.15
2022-08-27T03:58:13.999Z,30.38
2022-08-27T04:00:40.291Z,34.15
2022-08-27T04:03:06.587Z,31.05
2022-08-27T04:05:32.957Z,31.80
2022-08-27T04:07:59.195Z,34.13
2022-08-27T04:10:25.633Z,30.85
2022-08-27T04:12:59.205Z,31.65
2022-08-27T04:15:25.556Z,36.30
2022-08-27T04:17:52.105Z,35.72
2022-08-27T04:20:34.531Z,32.75
2022-08-27T04:23:01.520Z,36.13
2022-08-27T04:25:27.905Z,36.83
2022-08-27T04:27:54.145Z,34.40
2022-08-27T04:30:20.490Z,32.90
2022-08-27T04:32:46.793Z,38.00
2022-08-27T04:35:13.815Z,35.30
2022-08-27T04:37:40.286Z,32.80
2022-08-27T04:40:06.704Z,35.88
2022-08-27T04:42:33.229Z,36.72
2022-08-27T04:44:59.500Z,35.47
2022-08-27T04:47:25.818Z,33.92
2022-08-27T04:49:52.206Z,35.53
2022-08-27T04:52:18.523Z,31.85
2022-08-27T04:54:44.845Z,34.28
2022-08-27T04:57:11.141Z,32.75
2022-08-27T04:59:37.440Z,36.25
2022-08-27T05:02:04.709Z,32.70
2022-08-27T05:04:31.441Z,34.42
2022-08-27T05:06:57.716Z,36.63
2022-08-27T05:09:24.653Z,35.50
2022-08-27T05:11:53.218Z,33.55
2022-08-27T05:14:19.600Z,34.40
2022-08-27T05:16:45.931Z,35.30
2022-08-27T05:19:12.389Z,32.80
2022-08-27T05:21:38.797Z,31.77
2022-08-27T05:24:05.133Z,30.58
2022-08-27T05:26:31.548Z,30.45
2022-08-27T05:28:57.877Z,31.27
2022-08-27T05:31:24.158Z,32.30
2022-08-27T05:33:50.658Z,31.75
2022-08-27T05:36:17.621Z,30.77
2022-08-27T05:38:45.112Z,27.17
2022-08-27T05:41:11.704Z,25.92
2022-08-27T05:43:38.155Z,26.45
2022-08-27T05:46:04.493Z,27.80
2022-08-27T05:48:30.883Z,27.95
2022-08-27T05:50:57.317Z,25.88
2022-08-27T05:53:23.597Z,23.50
2022-08-27T05:55:49.903Z,23.95
2022-08-27T05:58:16.202Z,25.63
2022-08-27T06:00:42.667Z,22.88
2022-08-27T06:03:08.998Z,22.83
2022-08-27T06:05:35.445Z,24.67
2022-08-27T06:08:01.860Z,24.90
2022-08-27T06:10:28.241Z,25.52
2022-08-27T06:12:57.025Z,24.50
2022-08-27T06:15:23.551Z,21.13
2022-08-27T06:17:49.812Z,24.10
2022-08-27T06:20:16.280Z,21.95
2022-08-27T06:22:42.609Z,22.45
2022-08-27T06:25:09.019Z,23.60
2022-08-27T06:27:35.375Z,25.80
2022-08-27T06:30:01.701Z,24.85
2022-08-27T06:32:27.961Z,27.00
2022-08-27T06:34:54.262Z,25.83
2022-08-27T06:37:20.563Z,26.50
2022-08-27T06:39:47.020Z,26.20
2022-08-27T06:42:13.278Z,24.05
2022-08-27T06:44:39.596Z,25.77
2022-08-27T06:47:05.943Z,22.80
2022-08-27T06:49:32.461Z,18.88
2022-08-27T06:51:58.699Z,21.38
2022-08-27T06:54:25.217Z,20.23
2022-08-27T06:56:51.534Z,20.20
2022-08-27T06:59:20.257Z,18.48
2022-08-27T07:01:46.604Z,19.48
2022-08-27T07:04:13.026Z,17.38
2022-08-27T07:06:39.301Z,17.83
2022-08-27T07:09:05.585Z,17.33
2022-08-27T07:11:31.809Z,15.73
2022-08-27T07:13:58.287Z,15.38
2022-08-27T07:16:24.707Z,13.38
2022-08-27T07:18:51.177Z,13.82
2022-08-27T07:21:17.658Z,16.13
2022-08-27T07:23:44.105Z,16.30
2022-08-27T07:26:10.553Z,16.73
2022-08-27T07:28:36.904Z,16.67
2022-08-27T07:31:03.271Z,16.30
2022-08-27T07:33:29.631Z,17.58
2022-08-27T07:35:55.933Z,16.33
2022-08-27T07:38:22.179Z,16.58
2022-08-27T07:40:48.444Z,19.08
2022-08-27T07:43:14.672Z,16.73
2022-08-27T07:45:40.935Z,15.80
2022-08-27T07:48:07.236Z,20.77
2022-08-27T07:50:33.471Z,20.05
2022-08-27T07:52:59.697Z,18.52
2022-08-27T07:55:26.019Z,16.65
2022-08-27T07:57:52.284Z,17.40
2022-08-27T08:00:18.543Z,16.73
2022-08-27T08:02:45.003Z,17.95
2022-08-27T08:05:11.363Z,15.57
2022-08-27T08:07:37.678Z,13.88
2022-08-27T08:10:03.910Z,13.30
2022-08-27T08:12:30.158Z,12.65
2022-08-27T08:14:56.376Z,13.57
2022-08-27T08:17:22.751Z,15.50
2022-08-27T08:20:08.555Z,14.43
2022-08-27T08:22:35.501Z,11.73
2022-08-27T08:25:01.907Z,11.38
2022-08-27T08:27:28.136Z,10.00
2022-08-27T08:29:54.348Z,12.02
2022-08-27T08:32:20.659Z,11.48
2022-08-27T08:34:46.923Z,11.48
2022-08-27T08:37:13.246Z,12.57
2022-08-27T08:39:39.574Z,9.95
2022-08-27T08:42:05.858Z,10.68
2022-08-27T08:44:32.105Z,12.40
2022-08-27T08:46:58.477Z,10.50
2022-08-27T08:49:24.702Z,11.93
2022-08-27T08:51:51.463Z,11.70
2022-08-27T08:54:17.792Z,13.32
2022-08-27T08:56:44.274Z,11.13
2022-08-27T08:59:13.794Z,11.05
2022-08-27T09:01:40.106Z,9.07
2022-08-27T09:04:06.474Z,9.88
2022-08-27T09:06:32.859Z,10.52
2022-08-27T09:08:59.186Z,10.20
2022-08-27T09:11:25.670Z,8.93
2022-08-27T09:13:51.987Z,10.32
2022-08-27T09:16:18.483Z,8.73
2022-08-27T09:18:44.841Z,9.63
2022-08-27T09:21:11.716Z,11.00
2022-08-27T09:23:38.092Z,10.40
2022-08-27T09:26:04.430Z,8.45
2022-08-27T09:28:30.716Z,12.13
2022-08-27T09:30:57.078Z,11.23
2022-08-27T09:33:23.431Z,10.38
2022-08-27T09:35:49.706Z,11.43
2022-08-27T09:38:16.101Z,9.75
2022-08-27T09:40:42.425Z,11.40
2022-08-27T09:43:09.016Z,10.60
2022-08-27T09:45:35.415Z,10.60
2022-08-27T09:48:01.932Z,9.95
2022-08-27T09:50:28.573Z,9.55
2022-08-27T09:52:55.015Z,10.00
2022-08-27T09:55:21.457Z,9.48
2022-08-27T09:57:49.346Z,10.85
2022-08-27T10:00:15.837Z,10.05
2022-08-27T10:02:42.094Z,10.57
2022-08-27T10:05:08.525Z,10.02
2022-08-27T10:07:35.071Z,9.88
2022-08-27T10:10:01.711Z,10.75
2022-08-27T10:12:28.068Z,9.20
2022-08-27T10:14:54.309Z,9.00
2022-08-27T10:17:20.794Z,8.98
2022-08-27T10:19:47.519Z,8.90
2022-08-27T10:22:13.835Z,8.32
2022-08-27T10:24:40.060Z,10.07
2022-08-27T10:27:06.311Z,8.35
2022-08-27T10:29:32.537Z,8.20
2022-08-27T10:31:58.818Z,8.95
2022-08-27T10:34:25.108Z,8.65
2022-08-27T10:36:51.349Z,8.38
2022-08-27T10:39:17.559Z,7.88
2022-08-27T10:41:43.804Z,9.52
2022-08-27T10:44:10.021Z,8.68
2022-08-27T10:46:36.271Z,9.57
2022-08-27T10:49:02.688Z,8.15
2022-08-27T10:51:28.932Z,9.43
2022-08-27T10:53:55.146Z,9.52
2022-08-27T10:56:21.390Z,8.57
2022-08-27T10:58:47.599Z,8.48
2022-08-27T11:01:13.920Z,7.82
2022-08-27T11:03:40.236Z,8.45
2022-08-27T11:06:07.061Z,9.15
2022-08-27T11:08:33.747Z,8.82
2022-08-27T11:11:18.200Z,8.00
2022-08-27T11:13:46.311Z,8.27
2022-08-27T11:16:12.757Z,8.52
2022-08-27T11:18:38.991Z,7.70
2022-08-27T11:21:05.234Z,7.07
2022-08-27T11:23:31.754Z,6.70
2022-08-27T11:26:01.938Z,7.95
2022-08-27T11:28:30.004Z,6.95
2022-08-27T11:30:56.709Z,7.78
2022-08-27T11:33:23.320Z,7.70
2022-08-27T11:35:49.907Z,7.97
2022-08-27T11:38:16.551Z,8.23
2022-08-27T11:40:42.868Z,8.27
2022-08-27T11:43:11.448Z,7.60
2022-08-27T11:45:37.679Z,7.88
2022-08-27T11:48:03.944Z,8.70
2022-08-27T11:50:30.304Z,7.70
2022-08-27T11:52:56.541Z,7.70
2022-08-27T11:55:22.999Z,7.93
2022-08-27T11:57:49.256Z,7.10
2022-08-27T12:00:15.555Z,7.13
2022-08-27T12:02:41.821Z,7.05
2022-08-27T12:05:08.271Z,7.40
2022-08-27T12:07:34.484Z,6.88
2022-08-27T12:10:00.764Z,6.57
2022-08-27T12:12:26.987Z,7.13
2022-08-27T12:14:53.240Z,6.90
2022-08-27T12:17:19.573Z,9.05
2022-08-27T12:19:45.895Z,8.45
2022-08-27T12:22:12.155Z,8.32
2022-08-27T12:24:38.488Z,7.28
2022-08-27T12:27:04.836Z,7.10
2022-08-27T12:29:31.060Z,7.15
2022-08-27T12:31:57.478Z,7.88
2022-08-27T12:34:23.757Z,8.23
2022-08-27T12:36:50.056Z,6.93
2022-08-27T12:39:16.302Z,7.07
2022-08-27T12:41:44.787Z,6.80
2022-08-27T12:44:11.258Z,7.53
2022-08-27T12:46:37.668Z,7.70
2022-08-27T12:49:35.851Z,7.68
2022-08-27T12:51:52.994Z,8.18
2022-08-27T12:54:19.431Z,8.48
2022-08-27T12:56:54.407Z,7.65
2022-08-27T12:59:20.712Z,7.72
2022-08-27T13:01:47.219Z,8.00
2022-08-27T13:04:13.738Z,7.40
2022-08-27T13:06:40.059Z,7.45
2022-08-27T13:09:06.495Z,8.25
2022-08-27T13:11:32.809Z,6.55
2022-08-27T13:13:59.082Z,5.95
2022-08-27T13:16:25.385Z,7.10
2022-08-27T13:18:51.761Z,7.70
2022-08-27T13:21:18.019Z,7.18
2022-08-27T13:23:44.223Z,7.28
2022-08-27T13:26:10.647Z,7.82
2022-08-27T13:28:36.844Z,6.95
2022-08-27T13:31:03.374Z,6.55
2022-08-27T13:33:29.611Z,7.35
2022-08-27T13:35:55.916Z,7.20
2022-08-27T13:38:22.185Z,7.32
2022-08-27T13:40:48.424Z,7.50
2022-08-27T13:43:14.885Z,7.55
2022-08-27T13:45:41.133Z,7.22
2022-08-27T13:48:07.493Z,7.70
2022-08-27T13:50:33.833Z,7.30
2022-08-27T13:53:00.072Z,8.38
2022-08-27T13:55:27.398Z,7.53
2022-08-27T13:57:53.635Z,8.52
2022-08-27T14:00:19.990Z,7.18
2022-08-27T14:02:55.855Z,7.03
2022-08-27T14:05:22.885Z,7.75
2022-08-27T14:07:49.111Z,8.50
2022-08-27T14:10:15.613Z,8.73
2022-08-27T14:12:41.867Z,7.43
2022-08-27T14:15:08.250Z,9.60
2022-08-27T14:17:34.557Z,8.82
2022-08-27T14:20:00.921Z,8.25
2022-08-27T14:22:27.187Z,7.35
2022-08-27T14:24:53.414Z,7.95
2022-08-27T14:27:19.811Z,8.90
2022-08-27T14:29:46.094Z,8.23
2022-08-27T14:32:12.374Z,8.73
2022-08-27T14:34:38.665Z,7.95
2022-08-27T14:37:05.103Z,8.55
2022-08-27T14:39:31.663Z,9.43
2022-08-27T14:41:58.350Z,8.25
2022-08-27T14:44:24.720Z,9.30
2022-08-27T14:46:51.398Z,6.78
2022-08-27T14:49:18.117Z,7.90
2022-08-27T14:51:44.490Z,7.47
2022-08-27T14:54:10.799Z,6.97
2022-08-27T14:56:37.291Z,6.25
2022-08-27T14:59:03.582Z,6.90
2022-08-27T15:01:30.272Z,7.20
2022-08-27T15:03:56.530Z,7.28
2022-08-27T15:06:23.756Z,7.57
2022-08-27T15:08:50.083Z,7.05
2022-08-27T15:11:16.582Z,5.68
2022-08-27T15:13:42.885Z,5.97
2022-08-27T15:16:09.250Z,6.30
2022-08-27T15:18:35.760Z,6.32
2022-08-27T15:21:02.075Z,9.40
2022-08-27T15:23:28.384Z,6.68
2022-08-27T15:25:54.769Z,6.97
2022-08-27T15:28:21.297Z,7.22
2022-08-27T15:30:47.830Z,7.53
2022-08-27T15:33:14.155Z,7.40
2022-08-27T15:35:40.623Z,6.90
2022-08-27T15:38:07.009Z,8.07
2022-08-27T15:40:34.568Z,7.47
2022-08-27T15:43:00.959Z,6.25
2022-08-27T15:45:27.641Z,7.45
2022-08-27T15:47:54.246Z,6.93
2022-08-27T15:50:21.517Z,8.02
2022-08-27T15:52:47.799Z,6.90
2022-08-27T15:55:14.063Z,7.72
2022-08-27T15:57:40.358Z,7.78
2022-08-27T16:00:06.630Z,7.25
2022-08-27T16:02:33.002Z,7.90
2022-08-27T16:04:59.256Z,7.20
2022-08-27T16:07:25.819Z,7.38
2022-08-27T16:09:52.087Z,6.47
2022-08-27T16:12:27.087Z,7.05
2022-08-27T16:14:53.762Z,7.63
2022-08-27T16:17:20.032Z,6.75
2022-08-27T16:19:46.529Z,7.68
2022-08-27T16:22:12.818Z,6.22
2022-08-27T16:24:39.135Z,6.20
2022-08-27T16:27:05.610Z,4.93
2022-08-27T16:29:34.959Z,5.43
2022-08-27T16:32:01.635Z,6.18
2022-08-27T16:34:28.770Z,6.75
2022-08-27T16:36:55.076Z,6.53
2022-08-27T16:39:21.396Z,4.40
2022-08-27T16:41:47.889Z,6.30
2022-08-27T16:44:16.745Z,6.18
2022-08-27T16:46:43.123Z,5.45
2022-08-27T16:49:09.642Z,5.68
2022-08-27T16:51:35.939Z,5.40
2022-08-27T16:54:02.486Z,6.95
2022-08-27T16:56:28.851Z,5.50
2022-08-27T16:58:55.167Z,5.22
2022-08-27T17:01:21.607Z,6.63
2022-08-27T17:04:07.679Z,5.18
2022-08-27T17:06:34.393Z,5.38
2022-08-27T17:09:03.812Z,4.78
2022-08-27T17:11:30.104Z,5.40
2022-08-27T17:13:56.441Z,5.85
2022-08-27T17:16:22.726Z,4.70
2022-08-27T17:18:50.106Z,3.88
2022-08-27T17:21:16.433Z,3.53
2022-08-27T17:23:42.804Z,3.40
2022-08-27T17:26:09.122Z,4.28
2022-08-27T17:28:35.456Z,4.50
2022-08-27T17:31:01.825Z,4.32
2022-08-27T17:33:28.269Z,5.28
2022-08-27T17:35:57.421Z,4.13
2022-08-27T17:38:24.935Z,4.97
2022-08-27T17:40:52.175Z,4.65
2022-08-27T17:43:21.186Z,5.50
2022-08-27T17:45:50.198Z,5.20
2022-08-27T17:48:18.062Z,5.20
2022-08-27T17:50:46.861Z,5.15
2022-08-27T17:53:13.180Z,5.03
2022-08-27T17:55:39.650Z,4.80
2022-08-27T17:58:06.026Z,5.35
2022-08-27T18:00:32.359Z,4.90
2022-08-27T18:02:58.728Z,5.65
2022-08-27T18:05:25.145Z,5.03
2022-08-27T18:07:51.621Z,4.88
2022-08-27T18:10:17.888Z,4.75
2022-08-27T18:12:44.268Z,5.22
2022-08-27T18:15:10.595Z,4.75
2022-08-27T18:17:42.563Z,5.30
2022-08-27T18:20:09.666Z,4.78
2022-08-27T18:22:40.816Z,4.68
2022-08-27T18:25:07.439Z,4.35
2022-08-27T18:27:33.794Z,5.38
2022-08-27T18:30:00.115Z,4.82
2022-08-27T18:32:26.541Z,6.28
2022-08-27T18:34:52.895Z,5.13
2022-08-27T18:37:19.148Z,3.53
2022-08-27T18:39:45.429Z,4.50
2022-08-27T18:42:11.936Z,4.50
2022-08-27T18:44:38.410Z,4.20
2022-08-27T18:47:04.721Z,5.00
2022-08-27T18:49:31.145Z,4.38
2022-08-27T18:51:57.528Z,3.75
2022-08-27T18:54:24.153Z,4.50
2022-08-27T18:56:50.436Z,3.60
2022-08-27T18:59:16.796Z,4.07
2022-08-27T19:01:43.143Z,3.88
2022-08-27T19:04:09.443Z,4.88
2022-08-27T19:06:35.756Z,5.05
2022-08-27T19:09:02.077Z,3.55
2022-08-27T19:11:28.316Z,3.92
2022-08-27T19:13:54.561Z,4.25
2022-08-27T19:16:21.003Z,3.53
2022-08-27T19:18:47.265Z,4.07
2022-08-27T19:21:13.480Z,4.93
2022-08-27T19:23:39.766Z,5.25
2022-08-27T19:26:06.037Z,4.43
2022-08-27T19:28:32.338Z,3.78
2022-08-27T19:30:58.638Z,3.15
2022-08-27T19:33:25.024Z,4.07
2022-08-27T19:35:51.318Z,2.85
2022-08-27T19:38:17.682Z,3.00
2022-08-27T19:40:44.181Z,3.30
2022-08-27T19:43:10.685Z,2.53
2022-08-27T19:45:40.278Z,3.35
2022-08-27T19:50:33.584Z,2.63
2022-08-27T19:52:59.838Z,2.50
2022-08-27T19:55:26.084Z,3.30
2022-08-27T19:57:52.432Z,3.10
2022-08-27T20:00:18.723Z,3.00
2022-08-27T20:02:45.056Z,3.25
2022-08-27T20:05:19.318Z,3.22
2022-08-27T20:07:45.844Z,3.67
2022-08-27T20:10:12.208Z,3.25
2022-08-27T20:12:38.643Z,4.68
2022-08-27T20:15:05.140Z,3.88
2022-08-27T20:17:31.863Z,3.13
2022-08-27T20:19:58.084Z,3.78
2022-08-27T20:22:24.350Z,4.32
2022-08-27T20:24:50.703Z,5.13
2022-08-27T20:27:16.967Z,4.97
2022-08-27T20:29:43.266Z,5.10
2022-08-27T20:32:09.529Z,4.72
2022-08-27T20:34:36.110Z,4.18
2022-08-27T20:37:02.661Z,4.15
2022-08-27T20:39:29.018Z,5.28
2022-08-27T20:41:55.266Z,4.80
2022-08-27T20:44:21.541Z,5.60
2022-08-27T20:46:51.096Z,4.57
2022-08-27T20:49:18.469Z,4.93
2022-08-27T20:52:02.019Z,5.60
2022-08-27T20:54:29.711Z,4.95
2022-08-27T20:56:56.407Z,5.50
2022-08-27T20:59:22.721Z,5.97
2022-08-27T21:01:49.038Z,5.03
2022-08-27T21:04:15.373Z,4.95
2022-08-27T21:06:41.932Z,5.90
2022-08-27T21:09:08.244Z,6.38
2022-08-27T21:11:34.595Z,5.43
2022-08-27T21:14:01.321Z,5.75
2022-08-27T21:16:27.869Z,5.35
2022-08-27T21:18:54.208Z,7.07
2022-08-27T21:21:20.506Z,6.57
2022-08-27T21:23:46.833Z,6.75
2022-08-27T21:26:13.138Z,6.05
2022-08-27T21:28:39.395Z,5.68
2022-08-27T21:31:05.672Z,6.10
2022-08-27T21:33:32.018Z,6.28
2022-08-27T21:36:02.616Z,7.05
2022-08-27T21:38:28.956Z,6.93
2022-08-27T21:40:55.526Z,6.03
2022-08-27T21:43:21.843Z,5.75
2022-08-27T21:45:48.160Z,5.97
2022-08-27T21:48:14.475Z,6.05
2022-08-27T21:50:40.817Z,7.07
2022-08-27T21:53:07.193Z,5.90
2022-08-27T21:55:33.507Z,6.18
2022-08-27T21:57:59.884Z,6.07
2022-08-27T22:00:26.367Z,5.38
2022-08-27T22:02:52.787Z,6.43
2022-08-27T22:05:19.053Z,7.70
2022-08-27T22:07:45.437Z,7.55
2022-08-27T22:10:11.746Z,6.80
2022-08-27T22:12:38.013Z,7.47
2022-08-27T22:15:04.294Z,6.40
2022-08-27T22:17:30.561Z,7.72
2022-08-27T22:19:56.794Z,8.98
2022-08-27T22:22:23.204Z,7.57
2022-08-27T22:24:49.423Z,7.18
2022-08-27T22:27:17.850Z,6.93
2022-08-27T22:29:44.093Z,8.02
2022-08-27T22:32:10.389Z,7.70
2022-08-27T22:34:36.755Z,7.45
2022-08-27T22:37:03.053Z,7.47
2022-08-27T22:39:29.273Z,7.90
2022-08-27T22:41:55.533Z,8.43
2022-08-27T22:44:21.991Z,7.03
2022-08-27T22:46:48.415Z,8.25
2022-08-27T22:49:14.680Z,7.13
2022-08-27T22:51:40.941Z,7.28
2022-08-27T22:54:07.163Z,7.88
2022-08-27T22:56:33.419Z,7.82
2022-08-27T22:58:59.657Z,8.63
2022-08-27T23:01:25.994Z,8.43
2022-08-27T23:03:52.242Z,7.72
2022-08-27T23:06:18.633Z,9.05
2022-08-27T23:08:44.849Z,8.68
2022-08-27T23:11:11.075Z,8.77
2022-08-27T23:13:37.338Z,9.35
2022-08-27T23:16:03.603Z,10.82
2022-08-27T23:18:29.925Z,10.13
2022-08-27T23:20:56.147Z,9.15
2022-08-27T23:23:22.539Z,9.38
2022-08-27T23:25:53.106Z,10.48
2022-08-27T23:28:19.937Z,9.20
2022-08-27T23:30:46.465Z,11.13
2022-08-27T23:33:12.775Z,9.13
2022-08-27T23:35:39.101Z,9.93
2022-08-27T23:38:05.409Z,10.05
2022-08-27T23:40:31.858Z,10.38
2022-08-27T23:42:58.188Z,9.00
2022-08-27T23:45:24.521Z,9.23
2022-08-27T23:47:51.081Z,8.38
2022-08-27T23:50:17.392Z,9.43
2022-08-27T23:52:43.820Z,12.02
2022-08-27T23:55:10.224Z,12.25
2022-08-27T23:57:36.569Z,11.63
